Peggy Winslow — WDC5765 — position and weather

sailwx.info

Track history (hours):
 
Tides and Currents Weather Stations Pressure Air Temp Water Temp Dewpoint Dewpoint Depression Visibility Wind Speed Wind Dir Waves Ship Positions

Peggy Winslow

Owner: Winslow Marine Inc., Falmouth, ME. More information available from US FCC via Universal Licensing System and Coast Guard Vessel Documentation Center.

Last reported at 2018-Feb-13 13:12 UTC. Time now 2018-Feb-20 18:00 UTC.
Position N 42°59' W 070°33'.

; draft 5.5 m.

Type: Towing. MMSI: 397046090.

Date/timePositionNaut miles runAvg speedWind from/ knotsBaromVisibWave heightAir tempDewpointWater temp
2018-Feb-13 13:12N 42°59' W 070°33'210.2
2018-Feb-13 13:00N 42°57' W 070°33'510.1
2018-Feb-13 12:30N 42°52' W 070°34'5 9.7
2018-Feb-13 12:00N 42°47' W 070°34'510.1
2018-Feb-13 11:30N 42°42' W 070°32'5 9.8
2018-Feb-13 11:00N 42°38' W 070°31'5 9.6
2018-Feb-13 10:30N 42°34' W 070°35'510.0
2018-Feb-13 10:00N 42°30' W 070°39'5 9.8
2018-Feb-13 09:30N 42°25' W 070°40'510.1
2018-Feb-13 09:00N 42°20' W 070°41'5 9.5
2018-Feb-13 08:30N 42°16' W 070°40'55 6.2
2018-Feb-12 23:41N 41°30' W 071°21'311.4
2018-Feb-12 23:26N 41°33' W 071°20'410.7
2018-Feb-12 23:00N 41°37' W 071°17'510.4
2018-Feb-12 22:30N 41°41' W 071°12'2 3.1
2018-Feb-12 22:00N 41°42' W 071°11'4 7.0
2018-Feb-12 21:26N 41°39' W 071°15'10 7.1
2018-Feb-12 20:00N 41°30' W 071°21'55 4.6
2018-Feb-12 08:11N 42°14' W 070°38'1 8.4
2018-Feb-12 08:00N 42°15' W 070°40'4 8.0
2018-Feb-12 07:30N 42°19' W 070°41'4 8.5
2018-Feb-12 07:00N 42°23' W 070°41'4 8.5
2018-Feb-12 06:30N 42°28' W 070°40'4 7.9
2018-Feb-12 06:00N 42°31' W 070°38'4 8.1
2018-Feb-12 05:30N 42°34' W 070°34'4 8.3
2018-Feb-12 05:00N 42°37' W 070°30'4 8.7
2018-Feb-12 04:30N 42°41' W 070°29'4 8.5
2018-Feb-12 04:00N 42°45' W 070°27'4 8.5
2018-Feb-12 03:30N 42°49' W 070°26'4 8.4
2018-Feb-12 03:00N 42°54' W 070°25'  
Track history (hours):
 
Tides and Currents Weather Stations Pressure Air Temp Water Temp Dewpoint Dewpoint Depression Visibility Wind Speed Wind Dir Waves Ship Positions

Peggy Winslow

Owner: Winslow Marine Inc., Falmouth, ME. More information available from US FCC via Universal Licensing System and Coast Guard Vessel Documentation Center.

Last reported at 2018-Feb-13 13:12 UTC. Time now 2018-Feb-20 18:00 UTC.
Position N 42°59' W 070°33'.

; draft 5.5 m.

Type: Towing. MMSI: 397046090.

Date/timePositionNaut miles runAvg speedWind from/ knotsBaromVisibWave heightAir tempDewpointWater temp
2018-Feb-13 13:12N 42°59' W 070°33'210.2
2018-Feb-13 13:00N 42°57' W 070°33'510.1
2018-Feb-13 12:30N 42°52' W 070°34'5 9.7
2018-Feb-13 12:00N 42°47' W 070°34'510.1
2018-Feb-13 11:30N 42°42' W 070°32'5 9.8
2018-Feb-13 11:00N 42°38' W 070°31'5 9.6
2018-Feb-13 10:30N 42°34' W 070°35'510.0
2018-Feb-13 10:00N 42°30' W 070°39'5 9.8
2018-Feb-13 09:30N 42°25' W 070°40'510.1
2018-Feb-13 09:00N 42°20' W 070°41'5 9.5
2018-Feb-13 08:30N 42°16' W 070°40'55 6.2
2018-Feb-12 23:41N 41°30' W 071°21'311.4
2018-Feb-12 23:26N 41°33' W 071°20'410.7
2018-Feb-12 23:00N 41°37' W 071°17'510.4
2018-Feb-12 22:30N 41°41' W 071°12'2 3.1
2018-Feb-12 22:00N 41°42' W 071°11'4 7.0
2018-Feb-12 21:26N 41°39' W 071°15'10 7.1
2018-Feb-12 20:00N 41°30' W 071°21'55 4.6
2018-Feb-12 08:11N 42°14' W 070°38'1 8.4
2018-Feb-12 08:00N 42°15' W 070°40'4 8.0
2018-Feb-12 07:30N 42°19' W 070°41'4 8.5
2018-Feb-12 07:00N 42°23' W 070°41'4 8.5
2018-Feb-12 06:30N 42°28' W 070°40'4 7.9
2018-Feb-12 06:00N 42°31' W 070°38'4 8.1
2018-Feb-12 05:30N 42°34' W 070°34'4 8.3
2018-Feb-12 05:00N 42°37' W 070°30'4 8.7
2018-Feb-12 04:30N 42°41' W 070°29'4 8.5
2018-Feb-12 04:00N 42°45' W 070°27'4 8.5
2018-Feb-12 03:30N 42°49' W 070°26'4 8.4
2018-Feb-12 03:00N 42°54' W 070°25'  

Dump ship's entire track history